createdAt,value
2019-01-09T00:02:35.397Z,1.20
2019-01-09T00:07:00.436Z,1.37
2019-01-09T00:11:18.218Z,1.30
2019-01-09T00:15:43.301Z,1.20
2019-01-09T00:19:59.376Z,1.23
2019-01-09T00:28:53.486Z,1.57
2019-01-09T00:33:10.985Z,1.10
2019-01-09T00:37:36.049Z,1.10
2019-01-09T00:41:54.080Z,1.25
2019-01-09T00:46:11.906Z,1.10
2019-01-09T00:50:36.972Z,1.07
2019-01-09T00:54:54.637Z,1.13
2019-01-09T00:59:19.654Z,1.00
2019-01-09T01:03:41.670Z,1.10
2019-01-09T01:08:29.172Z,1.30
2019-01-09T01:13:05.941Z,1.10
2019-01-09T01:17:27.937Z,1.30
2019-01-09T01:22:15.363Z,1.20
2019-01-09T01:26:59.775Z,1.10
2019-01-09T01:36:39.417Z,1.40
2019-01-09T01:41:23.386Z,0.97
2019-01-09T01:46:26.975Z,1.13
2019-01-09T01:51:12.769Z,1.17
2019-01-09T01:55:58.589Z,1.00
2019-01-09T02:00:42.601Z,1.10
2019-01-09T02:05:46.184Z,1.10
2019-01-09T02:21:40.065Z,1.10
2019-01-09T02:26:25.921Z,1.37
2019-01-09T02:31:03.108Z,1.40
2019-01-09T02:35:28.165Z,1.17
2019-01-09T02:39:45.840Z,1.50
2019-01-09T02:44:06.785Z,1.23
2019-01-09T02:48:24.825Z,1.50
2019-01-09T02:52:49.851Z,1.27
2019-01-09T02:57:07.447Z,1.20
2019-01-09T03:01:32.466Z,1.20
2019-01-09T03:05:50.329Z,1.30
2019-01-09T03:14:52.334Z,1.30
2019-01-09T03:19:10.627Z,1.30
2019-01-09T03:23:29.030Z,1.07
2019-01-09T03:27:54.048Z,1.00
2019-01-09T03:32:11.767Z,1.30
2019-01-09T03:36:36.876Z,1.20
2019-01-09T03:40:54.478Z,1.13
2019-01-09T03:49:56.642Z,1.03
2019-01-09T03:54:14.805Z,1.20
2019-01-09T03:58:39.832Z,0.63
2019-01-09T04:02:57.759Z,1.00
2019-01-09T04:07:22.789Z,0.87
2019-01-09T04:11:40.689Z,1.30
2019-01-09T04:16:05.706Z,1.03
2019-01-09T04:20:21.764Z,0.67
2019-01-09T04:29:16.693Z,0.73
2019-01-09T04:33:34.374Z,1.00
2019-01-09T04:42:45.115Z,0.90
2019-01-09T04:47:01.049Z,0.73
2019-01-09T04:51:19.118Z,0.70
2019-01-09T04:55:37.324Z,0.80
2019-01-09T04:59:55.333Z,1.03
2019-01-09T05:04:20.379Z,0.80
2019-01-09T05:08:37.998Z,1.20
2019-01-09T05:17:39.430Z,1.07
2019-01-09T05:21:57.194Z,1.17
2019-01-09T05:26:22.220Z,1.30
2019-01-09T05:30:40.548Z,1.20
2019-01-09T05:35:16.712Z,1.00
2019-01-09T05:44:17.977Z,1.13
2019-01-09T05:48:35.487Z,0.97
2019-01-09T05:52:53.285Z,1.30
2019-01-09T05:57:18.310Z,1.10
2019-01-09T06:01:35.965Z,1.20
2019-01-09T06:10:37.470Z,1.47
2019-01-09T06:14:54.920Z,1.17
2019-01-09T06:19:12.567Z,1.03
2019-01-09T06:23:37.582Z,1.20
2019-01-09T06:27:55.681Z,1.13
2019-01-09T06:32:13.379Z,1.00
2019-01-09T06:36:30.867Z,0.90
2019-01-09T06:45:32.406Z,0.60
2019-01-09T06:49:50.251Z,0.40
2019-01-09T06:54:15.302Z,0.30
2019-01-09T06:58:33.690Z,0.28
2019-01-09T07:02:58.711Z,0.27
2019-01-09T07:07:16.111Z,0.47
2019-01-09T07:11:41.118Z,0.60
2019-01-09T07:15:59.405Z,0.43
2019-01-09T07:25:03.263Z,0.97
2019-01-09T07:29:22.402Z,0.77
2019-01-09T07:33:40.649Z,0.70
2019-01-09T07:38:05.647Z,0.60
2019-01-09T07:42:23.536Z,1.00
2019-01-09T07:46:48.573Z,1.90
2019-01-09T07:51:06.408Z,1.20
2019-01-09T07:55:31.437Z,1.40
2019-01-09T07:59:49.092Z,1.20
2019-01-09T08:08:56.013Z,1.20
2019-01-09T08:13:21.040Z,1.40
2019-01-09T08:17:38.793Z,1.30
2019-01-09T08:22:04.864Z,1.50
2019-01-09T08:26:24.577Z,1.30
2019-01-09T08:30:43.028Z,1.10
2019-01-09T08:35:00.747Z,1.40
2019-01-09T08:44:02.625Z,1.00
2019-01-09T08:48:20.345Z,1.03
2019-01-09T08:52:45.361Z,0.80
2019-01-09T08:57:03.564Z,1.10
2019-01-09T09:01:28.572Z,0.80
2019-01-09T09:05:46.691Z,1.20
2019-01-09T09:10:32.521Z,1.13
2019-01-09T09:14:50.404Z,1.13
2019-01-09T09:19:15.852Z,1.10
2019-01-09T09:23:38.210Z,1.37
2019-01-09T09:28:03.280Z,1.20
2019-01-09T09:32:21.343Z,1.50
2019-01-09T09:36:46.366Z,1.40
2019-01-09T09:41:21.312Z,1.30
2019-01-09T09:50:22.958Z,1.27
2019-01-09T09:54:38.967Z,1.40
2019-01-09T10:03:46.121Z,1.40
2019-01-09T10:08:11.159Z,1.30
2019-01-09T10:12:27.299Z,1.20
2019-01-09T10:21:28.438Z,1.20
2019-01-09T10:25:46.785Z,1.50
2019-01-09T10:30:09.005Z,1.40
2019-01-09T10:34:27.172Z,1.20
2019-01-09T10:43:28.589Z,1.30
2019-01-09T10:47:46.346Z,1.60
2019-01-09T10:52:11.369Z,1.57
2019-01-09T10:56:28.992Z,1.20
2019-01-09T11:00:54.016Z,1.50
2019-01-09T11:05:12.158Z,1.47
2019-01-09T11:09:37.179Z,1.60
2019-01-09T11:13:55.240Z,1.40
2019-01-09T11:18:21.247Z,1.33
2019-01-09T11:22:39.293Z,1.40
2019-01-09T11:31:33.870Z,2.00
2019-01-09T11:35:51.395Z,1.43
2019-01-09T11:40:37.201Z,1.40
2019-01-09T11:44:55.109Z,1.40
2019-01-09T11:49:20.137Z,1.60
2019-01-09T11:53:37.770Z,1.27
2019-01-09T11:58:02.817Z,1.60
2019-01-09T12:06:53.006Z,1.60
2019-01-09T12:15:48.135Z,1.43
2019-01-09T12:19:53.821Z,1.30
2019-01-09T12:23:59.491Z,1.20
2019-01-09T12:28:05.244Z,1.40
2019-01-09T12:32:10.952Z,1.80
2019-01-09T12:36:16.653Z,1.40
2019-01-09T12:40:22.427Z,1.43
2019-01-09T12:44:28.105Z,1.30
2019-01-09T12:48:33.828Z,1.70
2019-01-09T12:52:39.520Z,1.50
2019-01-09T12:56:45.223Z,1.70
2019-01-09T13:01:10.320Z,1.10
2019-01-09T13:05:27.986Z,1.60
2019-01-09T13:09:53.009Z,1.30
2019-01-09T13:14:08.829Z,1.90
2019-01-09T13:18:33.867Z,2.07
2019-01-09T13:22:51.529Z,1.60
2019-01-09T13:27:16.555Z,2.07
2019-01-09T13:31:34.380Z,1.80
2019-01-09T13:40:36.049Z,1.80
2019-01-09T13:44:54.179Z,2.10
2019-01-09T13:58:32.834Z,1.13
2019-01-09T14:02:50.359Z,1.20
2019-01-09T14:07:15.351Z,1.60
2019-01-09T14:11:37.817Z,1.53
2019-01-09T14:16:02.916Z,1.80
2019-01-09T14:20:24.090Z,1.43
2019-01-09T14:24:49.123Z,1.37
2019-01-09T14:29:05.520Z,1.70
2019-01-09T14:33:23.400Z,1.43
2019-01-09T14:38:07.547Z,1.87
2019-01-09T14:42:25.771Z,1.87
2019-01-09T14:46:50.801Z,2.07
2019-01-09T14:51:08.754Z,2.10
2019-01-09T14:55:33.781Z,2.10
2019-01-09T14:59:51.798Z,1.90
2019-01-09T15:09:14.299Z,2.00
2019-01-09T15:13:35.407Z,1.90
2019-01-09T15:18:00.522Z,1.90
2019-01-09T15:22:18.541Z,2.07
2019-01-09T15:31:30.884Z,2.10
2019-01-09T15:35:48.401Z,1.90
2019-01-09T15:40:34.188Z,1.30
2019-01-09T15:44:51.977Z,1.20
2019-01-09T15:49:17.046Z,1.30
2019-01-09T15:53:33.108Z,1.30
2019-01-09T15:57:58.237Z,1.40
2019-01-09T16:02:16.160Z,1.30
2019-01-09T16:06:34.518Z,1.52
2019-01-09T16:10:52.279Z,1.47
2019-01-09T16:15:38.083Z,1.90
2019-01-09T16:19:56.050Z,1.57
2019-01-09T16:24:21.097Z,1.80
2019-01-09T16:28:39.265Z,1.97
2019-01-09T16:32:56.792Z,2.13
2019-01-09T16:37:14.624Z,2.20
2019-01-09T16:41:39.740Z,1.90
2019-01-09T16:45:57.744Z,1.77
2019-01-09T16:50:42.821Z,1.80
2019-01-09T16:55:00.410Z,2.10
2019-01-09T16:59:17.999Z,1.87
2019-01-09T17:03:35.777Z,2.20
2019-01-09T17:08:12.427Z,2.10
2019-01-09T17:12:37.513Z,2.30
2019-01-09T17:16:55.231Z,2.17
2019-01-09T17:25:56.888Z,2.00
2019-01-09T17:30:18.899Z,2.23
2019-01-09T17:34:43.919Z,7.30
2019-01-09T17:39:10.506Z,2.13
2019-01-09T17:43:35.902Z,2.53
2019-01-09T17:47:53.314Z,2.17
2019-01-09T17:52:18.348Z,2.03
2019-01-09T17:56:36.468Z,2.13
2019-01-09T18:00:52.519Z,1.97
2019-01-09T18:09:57.208Z,2.23
2019-01-09T18:14:14.961Z,1.80
2019-01-09T18:23:14.866Z,4.70
2019-01-09T18:27:39.863Z,1.87
2019-01-09T18:32:01.824Z,1.90
2019-01-09T18:37:05.649Z,1.70
2019-01-09T18:41:25.068Z,2.00
2019-01-09T18:46:10.907Z,1.60
2019-01-09T18:50:30.172Z,3.50
2019-01-09T18:54:48.099Z,1.97
2019-01-09T18:59:05.639Z,2.50
2019-01-09T19:03:30.731Z,2.90
2019-01-09T19:07:55.671Z,2.63
2019-01-09T19:12:20.753Z,2.93
2019-01-09T19:16:39.027Z,2.53
2019-01-09T19:21:04.136Z,2.70
2019-01-09T19:25:20.162Z,2.77
2019-01-09T19:29:45.183Z,2.87
2019-01-09T19:34:03.460Z,2.40
2019-01-09T19:39:07.119Z,3.03
2019-01-09T19:43:25.000Z,2.62
2019-01-09T19:52:07.935Z,2.77
2019-01-09T19:56:13.921Z,2.50
2019-01-09T20:00:23.444Z,2.62
2019-01-09T20:04:29.210Z,3.10
2019-01-09T20:08:41.033Z,2.77
2019-01-09T20:12:46.820Z,2.80
2019-01-09T20:16:52.660Z,3.27
2019-01-09T20:20:58.576Z,2.70
2019-01-09T20:25:05.985Z,2.63
2019-01-09T20:29:11.755Z,2.40
2019-01-09T20:33:17.497Z,2.37
2019-01-09T20:37:23.178Z,2.30
2019-01-09T20:41:35.155Z,2.20
2019-01-09T20:45:36.464Z,2.40
2019-01-09T20:49:42.275Z,2.90
2019-01-09T20:53:48.382Z,2.03
2019-01-09T20:57:54.356Z,1.97
2019-01-09T21:02:00.134Z,3.53
2019-01-09T21:06:06.664Z,2.87
2019-01-09T21:10:16.134Z,2.23
2019-01-09T21:14:22.041Z,2.27
2019-01-09T21:18:28.157Z,2.83
2019-01-09T21:22:33.874Z,2.42
2019-01-09T21:26:41.343Z,2.60
2019-01-09T21:30:47.047Z,2.77
2019-01-09T21:34:52.748Z,2.03
2019-01-09T21:38:58.437Z,2.20
2019-01-09T21:43:04.201Z,1.80
2019-01-09T21:47:10.903Z,2.30
2019-01-09T21:51:16.565Z,2.30
2019-01-09T21:55:22.497Z,2.33
2019-01-09T21:59:28.265Z,2.37
2019-01-09T22:03:33.960Z,2.60
2019-01-09T22:07:39.741Z,2.17
2019-01-09T22:11:45.573Z,2.17
2019-01-09T22:15:51.329Z,1.83
2019-01-09T22:19:57.087Z,1.90
2019-01-09T22:24:02.851Z,2.37
2019-01-09T22:28:08.590Z,2.10
2019-01-09T22:32:14.272Z,2.10
2019-01-09T22:36:19.957Z,2.17
2019-01-09T22:40:25.746Z,2.43
2019-01-09T22:44:31.450Z,2.40
2019-01-09T22:48:37.165Z,2.60
2019-01-09T22:52:42.898Z,2.10
2019-01-09T22:56:48.657Z,2.30
2019-01-09T23:00:58.590Z,2.40
2019-01-09T23:05:05.194Z,2.60
2019-01-09T23:09:12.173Z,3.03
2019-01-09T23:13:18.028Z,2.83
2019-01-09T23:17:23.730Z,2.90
2019-01-09T23:21:29.498Z,2.50
2019-01-09T23:25:35.394Z,3.10
2019-01-09T23:29:41.172Z,2.67
2019-01-09T23:33:46.999Z,2.70
2019-01-09T23:37:52.696Z,3.40
2019-01-09T23:41:58.393Z,2.80
2019-01-09T23:46:04.698Z,2.90
2019-01-09T23:50:12.084Z,2.87
2019-01-09T23:54:17.755Z,3.10
2019-01-09T23:58:50.240Z,2.70
